GMTA/AHU METAR and TAF weather

Enter ICAO airport designator
Station Type Date Time Source
GMTA METAR 2020/09/22 23:00 UTC NOAA

GMTA 222300Z 18004KT CAVOK 23/11 Q1015 NOSIG


Station Type Date Time Source
GMTA Decoded METAR 2020/09/22 23:00 UTC NOAA

Al Hoceima, Morocco (GMTA) 35-11N 003-51W 14M
Sep 22, 2020 - 07:00 PM EDT / 2020.09.22 2300 UTC
Wind: from the S (180 degrees) at 5 MPH (4 KT):0
Visibility: greater than 7 mile(s):0
Temperature: 73 F (23 C)
Dew Point: 51 F (11 C)
Relative Humidity: 46%
Pressure (altimeter): 29.97 in. Hg (1015 hPa)
ob: GMTA 222300Z 18004KT CAVOK 23/11 Q1015 NOSIG
cycle: 23

Station Type Date Time Source
GMTA TAF 2020/09/22 18:18 UTC NOAA

TAF GMTA 221700Z 2218/2324 VRB02KT CAVOK

Example: see airport list